Time;durP1;ratioP1;P1;durP2;ratioP2;P2;SDS_P1;SDS_P2;PMS_P1;PMS_P2;Temp;Humidity;BMP_temperature;BMP_pressure;BME280_temperature;BME280_humidity;BME280_pressure;Samples;Min_cycle;Max_cycle;Signal;HPM_P1;HPM_P2
2022/06/01 00:04:34;;;;;;;;;;;;;;;12.29;100.00;95479.00;10498014;28;2268;-75
2022/06/01 00:09:38;;;;;;;;;;;;;;;12.34;100.00;95473.53;10492749;28;2290;-74
2022/06/01 00:14:42;;;;;;;;;;;;;;;12.40;100.00;95472.34;10506427;28;2282;-75
2022/06/01 00:19:45;;;;;;;;;;;;;;;12.37;100.00;95472.94;10518372;28;2266;-75
2022/06/01 00:24:48;;;;;;;;;;;;;;;12.39;100.00;95465.34;10500171;28;2267;-73
2022/06/01 00:29:52;;;;;;;;;;;;;;;12.42;100.00;95462.09;10503271;28;2306;-75
2022/06/01 00:34:58;;;;;;;;;;;;;;;12.59;99.57;95464.25;10512249;28;2460;-76
2022/06/01 00:40:01;;;;;;;;;;;;;;;12.63;98.39;95459.06;10488012;28;2355;-75
2022/06/01 00:45:05;;;;;;;;;;;;;;;12.76;97.59;95460.22;10498301;28;2381;-75
2022/06/01 00:50:08;;;;;;;;;;;;;;;12.76;96.51;95463.72;10497915;28;2558;-74
2022/06/01 00:55:12;;;;;;;;;;;;;;;12.69;97.45;95463.28;10501539;28;2270;-75
2022/06/01 01:00:16;;;;;;;;;;;;;;;12.73;96.72;95468.91;10485192;28;2217;-75
2022/06/01 01:05:19;;;;;;;;;;;;;;;12.84;96.31;95475.72;10484543;28;2266;-75
2022/06/01 01:10:23;;;;;;;;;;;;;;;12.83;95.53;95464.13;10514058;28;2081;-75
2022/06/01 01:15:30;;;;;;;;;;;;;;;12.72;96.42;95462.69;10487048;28;2196;-75
2022/06/01 01:20:40;;;;;;;;;;;;;;;12.61;96.81;95466.66;10497646;28;2109;-75
2022/06/01 01:25:44;;;;;;;;;;;;;;;12.50;98.40;95465.22;10485106;28;2307;-75
2022/06/01 01:30:49;;;;;;;;;;;;;;;12.39;98.95;95469.94;10499500;28;2299;-76
2022/06/01 01:35:56;;;;;;;;;;;;;;;12.31;99.79;95482.19;10486311;28;2077;-75
2022/06/01 01:41:00;;;;;;;;;;;;;;;12.26;100.00;95487.66;10478623;28;2200;-75
2022/06/01 01:46:03;;;;;;;;;;;;;;;12.21;100.00;95485.03;10500266;28;2208;-74
2022/06/01 01:51:07;;;;;;;;;;;;;;;12.10;100.00;95488.97;10508676;28;2263;-75
2022/06/01 01:56:12;;;;;;;;;;;;;;;11.95;100.00;95486.44;10480476;28;2172;-75
2022/06/01 02:01:15;;;;;;;;;;;;;;;11.95;100.00;95484.56;10503795;28;2273;-75
2022/06/01 02:06:21;;;;;;;;;;;;;;;11.89;100.00;95488.41;10480558;28;2307;-75
2022/06/01 02:16:46;;;;;;;;;;;;;;;11.75;100.00;95504.44;10505115;28;2291;-75
2022/06/01 02:21:50;;;;;;;;;;;;;;;11.69;100.00;95488.63;10484743;28;2326;-75
2022/06/01 02:26:53;;;;;;;;;;;;;;;11.59;100.00;95492.25;10503642;28;2342;-75
2022/06/01 02:31:57;;;;;;;;;;;;;;;11.51;100.00;95492.84;10504250;28;2445;-75
2022/06/01 02:37:00;;;;;;;;;;;;;;;11.44;100.00;95493.19;10481218;28;2287;-75
2022/06/01 02:47:25;;;;;;;;;;;;;;;11.44;100.00;95495.09;10497448;28;2372;-75
2022/06/01 02:52:29;;;;;;;;;;;;;;;11.33;100.00;95492.53;10482537;28;2235;-75
2022/06/01 02:57:33;;;;;;;;;;;;;;;11.26;100.00;95502.81;10500673;28;2380;-75
2022/06/01 03:02:37;;;;;;;;;;;;;;;11.28;100.00;95506.03;10490990;28;2315;-75
2022/06/01 03:07:40;;;;;;;;;;;;;;;11.25;100.00;95503.88;10487097;28;2438;-75
2022/06/01 03:12:44;;;;;;;;;;;;;;;11.33;100.00;95507.88;10531198;28;2409;-75
2022/06/01 03:17:48;;;;;;;;;;;;;;;11.39;100.00;95504.03;10492292;28;2399;-75
2022/06/01 03:22:52;;;;;;;;;;;;;;;11.40;100.00;95507.53;10496914;28;2366;-76
2022/06/01 03:27:57;;;;;;;;;;;;;;;11.44;100.00;95520.13;10506847;28;2544;-75
2022/06/01 03:33:01;;;;;;;;;;;;;;;11.45;100.00;95513.66;10482651;28;2342;-74
2022/06/01 03:38:04;;;;;;;;;;;;;;;11.53;100.00;95517.63;10495293;28;2267;-75
2022/06/01 03:43:08;;;;;;;;;;;;;;;11.61;100.00;95525.06;10496763;28;2332;-75
2022/06/01 03:48:12;;;;;;;;;;;;;;;11.84;100.00;95528.88;10500665;28;2290;-74
2022/06/01 03:53:15;;;;;;;;;;;;;;;11.93;100.00;95527.16;10495690;28;2378;-75
2022/06/01 03:58:19;;;;;;;;;;;;;;;12.14;100.00;95519.59;10476958;28;2202;-74
2022/06/01 04:03:23;;;;;;;;;;;;;;;12.23;100.00;95519.78;10503721;28;2306;-75
2022/06/01 04:08:26;;;;;;;;;;;;;;;12.24;100.00;95526.78;10506256;28;2291;-75
2022/06/01 04:13:30;;;;;;;;;;;;;;;12.73;100.00;95526.34;10502622;28;2292;-75
2022/06/01 04:18:54;;;;;;;;;;;;;;;13.20;98.29;95529.91;10510525;28;2311;-75
2022/06/01 04:24:19;;;;;;;;;;;;;;;13.45;96.98;95534.09;10503440;28;2306;-74
2022/06/01 04:29:42;;;;;;;;;;;;;;;14.00;93.51;95544.97;10505912;28;2256;-75
2022/06/01 04:35:06;;;;;;;;;;;;;;;14.36;90.19;95545.03;10526503;28;2311;-75
2022/06/01 04:40:29;;;;;;;;;;;;;;;14.73;86.46;95535.84;10521865;28;2308;-75
2022/06/01 04:45:53;;;;;;;;;;;;;;;14.94;86.02;95541.59;10508878;28;2459;-76
2022/06/01 04:51:17;;;;;;;;;;;;;;;15.48;82.48;95539.75;10503618;28;2405;-75
2022/06/01 04:56:40;;;;;;;;;;;;;;;15.53;81.38;95546.94;10500949;28;2402;-75
2022/06/01 05:02:03;;;;;;;;;;;;;;;15.79;79.10;95544.41;10501740;28;2314;-76
2022/06/01 05:07:27;;;;;;;;;;;;;;;15.77;79.22;95549.31;10505616;28;2514;-75
2022/06/01 05:12:30;;;;;;;;;;;;;;;15.58;80.41;95549.50;10504940;28;2398;-75
2022/06/01 05:17:36;;;;;;;;;;;;;;;16.53;75.94;95543.66;10501512;28;2409;-76
2022/06/01 05:22:40;;;;;;;;;;;;;;;17.25;70.82;95546.59;10479866;28;2371;-75
2022/06/01 05:27:43;;;;;;;;;;;;;;;17.84;68.61;95529.69;10479047;28;2669;-75
2022/06/01 05:32:47;;;;;;;;;;;;;;;17.69;67.92;95532.94;10486953;28;2336;-76
2022/06/01 05:37:51;;;;;;;;;;;;;;;17.55;68.90;95539.34;10477948;28;2367;-78
2022/06/01 05:42:54;;;;;;;;;;;;;;;17.97;67.41;95538.78;10511075;28;2459;-75
2022/06/01 05:47:57;;;;;;;;;;;;;;;18.35;65.75;95539.53;10483460;28;2283;-76
2022/06/01 05:53:01;;;;;;;;;;;;;;;18.55;65.03;95542.63;10510476;28;2526;-75
2022/06/01 05:58:06;;;;;;;;;;;19.10;99.90;;;19.42;60.88;95543.59;10486483;28;2427;-75
2022/06/01 06:03:09;;;;;;;;;;;19.20;99.90;;;18.86;62.19;95540.38;10513787;28;2370;-74
2022/06/01 06:08:14;;;;;;;;;;;19.20;99.90;;;19.29;61.17;95536.50;10504543;28;2327;-75
2022/06/01 06:13:17;;;;;;;;;;;19.40;99.90;;;18.97;61.56;95538.06;10481653;28;2339;-76
2022/06/01 06:18:21;;;;;;;;;;;19.30;99.90;;;19.20;60.79;95540.41;10485791;28;2215;-75
2022/06/01 06:23:25;;;;;;;;;;;;;;;19.39;59.63;95540.72;10496162;28;2382;-75
2022/06/01 06:28:29;;;;;;;;;;;;;;;19.40;59.11;95536.84;10487948;28;2355;-77
2022/06/01 06:33:32;;;;;;;;;;;;;;;19.66;58.65;95542.09;10476362;28;2320;-75
2022/06/01 06:38:36;;;;;;;;;;;;;;;19.55;57.48;95540.91;10504942;28;2418;-77
2022/06/01 06:43:39;;;;;;;;;;;20.00;99.90;;;19.78;57.40;95542.09;10484665;28;2374;-76
2022/06/01 06:48:42;;;;;;;;;;;20.20;99.90;;;20.06;55.27;95539.56;10511122;28;2939;-75
2022/06/01 06:53:46;;;;;;;;;;;;;;;19.90;54.74;95550.31;10488507;28;2275;-76
2022/06/01 06:58:50;;;;;;;;;;;;;;;20.02;55.06;95551.47;10486570;28;2339;-75
2022/06/01 07:03:54;;;;;;;;;;;;;;;20.21;53.93;95540.81;10504108;28;2366;-74
2022/06/01 07:09:00;;;;;;;;;;;;;;;20.36;54.26;95536.59;10518315;28;2366;-74
2022/06/01 07:14:03;;;;;;;;;;;21.00;99.90;;;20.66;52.63;95534.44;10500036;28;2417;-74
2022/06/01 07:19:06;;;;;;;;;;;21.10;99.90;;;20.74;52.44;95537.06;10478895;28;2323;-75
2022/06/01 07:24:10;;;;;;;;;;;21.30;99.90;;;21.17;50.18;95534.78;10507425;28;2362;-76
2022/06/01 07:29:14;;;;;;;;;;;21.50;99.90;;;21.09;47.91;95531.03;10510270;28;2044;-75
2022/06/01 07:34:17;;;;;;;;;;;21.60;99.90;;;20.97;49.62;95540.06;10495718;28;2253;-76
2022/06/01 07:44:42;;;;;;;;;;;21.50;99.90;;;21.47;46.52;95527.84;10501174;28;2087;-76
2022/06/01 07:49:45;;;;;;;;;;;21.70;99.90;;;21.37;46.67;95531.06;10493849;28;2776;-76
2022/06/01 07:55:10;;;;;;;;;;;21.90;99.90;;;21.01;47.22;95518.31;10519275;28;2410;-76
2022/06/01 08:00:13;;;;;;;;;;;21.70;99.90;;;20.62;47.48;95517.16;10515341;28;2368;-75
2022/06/01 08:05:16;;;;;;;;;;;21.40;99.90;;;20.85;49.34;95523.72;10514307;28;2366;-75
2022/06/01 08:10:20;;;;;;;;;;;21.40;99.90;;;20.97;47.27;95518.22;10491432;28;2198;-75
2022/06/01 08:15:23;;;;;;;;;;;21.50;99.90;;;21.38;47.26;95521.75;10487632;28;2336;-75
2022/06/01 08:20:28;;;;;;;;;;;22.20;99.90;;;22.10;41.09;95514.28;10496641;28;2326;-76
2022/06/01 08:25:32;;;;;;;;;;;22.30;99.90;;;22.32;39.86;95509.31;10506653;28;2376;-75
2022/06/01 08:30:35;;;;;;;;;;;22.60;99.90;;;22.01;39.49;95512.81;10506948;28;2279;-75
2022/06/01 08:35:39;;;;;;;;;;;;;;;22.02;37.76;95511.69;10511141;28;1992;-76
2022/06/01 08:40:42;;;;;;;;;;;;;;;22.21;37.93;95514.53;10512731;28;2385;-76
2022/06/01 08:45:46;;;;;;;;;;;;;;;22.12;36.06;95517.44;10506503;28;2350;-75
2022/06/01 08:50:51;;;;;;;;;;;;;;;22.12;37.38;95520.19;10510051;28;2327;-75
2022/06/01 08:55:55;;;;;;;;;;;;;;;22.28;36.31;95516.66;10510469;28;2323;-75
2022/06/01 09:00:58;;;;;;;;;;;22.80;99.90;;;22.43;35.04;95515.84;10494042;28;2442;-75
2022/06/01 09:06:01;;;;;;;;;;;;;;;22.96;33.75;95505.28;10494033;28;2346;-75
2022/06/01 09:11:05;;;;;;;;;;;;;;;23.20;34.90;95496.78;10507975;28;2276;-74
2022/06/01 09:16:08;;;;;;;;;;;;;;;23.88;33.43;95502.81;10502953;28;2307;-76
2022/06/01 09:26:34;;;;;;;;;;;;;;;24.10;33.96;95495.72;10509618;28;2451;-75
2022/06/01 09:31:37;;;;;;;;;;;;;;;23.31;36.29;95504.44;10508875;28;2386;-73
2022/06/01 09:36:42;;;;;;;;;;;;;;;23.46;35.51;95503.56;10491868;28;2431;-75
2022/06/01 09:41:46;;;;;;;;;;;;;;;23.50;35.31;95500.91;10506028;28;2389;-72
2022/06/01 09:46:50;;;;;;;;;;;;;;;23.56;35.41;95500.25;10489578;28;2216;-74
2022/06/01 09:51:54;;;;;;;;;;;;;;;22.74;36.68;95498.53;10502374;28;2334;-75
2022/06/01 09:56:58;;;;;;;;;;;;;;;22.67;36.63;95507.41;10506228;28;2191;-76
2022/06/01 10:07:24;;;;;;;;;;;;;;;22.55;36.72;95502.03;10512637;28;2312;-75
2022/06/01 10:12:28;;;;;;;;;;;;;;;23.02;35.72;95498.38;10500205;28;2128;-75
2022/06/01 10:17:33;;;;;;;;;;;;;;;22.63;37.09;95514.72;10479493;28;2201;-75
2022/06/01 10:22:38;;;;;;;;;;;;;;;22.58;36.89;95500.50;10477501;28;2347;-75
2022/06/01 10:27:42;;;;;;;;;;;;;;;22.61;36.23;95503.34;10506525;28;2465;-76
2022/06/01 10:32:47;;;;;;;;;;;;;;;22.42;36.88;95510.72;10504694;28;2200;-75
2022/06/01 10:37:50;;;;;;;;;;;;;;;22.81;36.77;95514.34;10479553;28;2317;-76
2022/06/01 10:48:15;;;;;;;;;;;;;;;22.59;36.18;95508.41;10513424;28;2175;-76
2022/06/01 10:53:20;;;;;;;;;;;;;;;22.93;34.65;95515.03;10509221;28;2561;-77
2022/06/01 10:58:23;;;;;;;;;;;;;;;23.23;36.21;95513.69;10501899;28;2485;-78
2022/06/01 11:03:28;;;;;;;;;;;;;;;23.79;34.81;95513.22;10514711;28;2259;-77
2022/06/01 11:08:32;;;;;;;;;;;;;;;25.41;30.53;95496.03;10508102;28;1512;-77
2022/06/01 11:13:36;;;;;;;;;;;;;;;25.59;32.67;95491.53;10508184;28;2334;-76
2022/06/01 11:18:40;;;;;;;;;;;;;;;27.24;28.00;95480.63;10483043;28;2348;-77
2022/06/01 11:23:45;;;;;;;;;;;;;;;26.18;29.41;95489.75;10508658;28;2339;-76
2022/06/01 11:28:49;;;;;;;;;;;;;;;26.64;28.97;95472.78;10514008;28;2666;-76
2022/06/01 11:33:54;;;;;;;;;;;;;;;26.27;29.83;95481.16;10513034;28;2231;-77
2022/06/01 11:38:58;;;;;;;;;;;;;;;26.07;30.23;95475.88;10499493;28;2271;-76
2022/06/01 11:44:01;;;;;;;;;;;;;;;25.54;29.22;95467.88;10489239;28;2142;-76
2022/06/01 11:49:06;;;;;;;;;;;;;;;24.95;30.69;95463.25;10507294;28;2287;-76
2022/06/01 11:54:10;;;;;;;;;;;;;;;26.11;30.31;95460.19;10496094;28;2494;-76
2022/06/01 11:59:13;;;;;;;;;;;;;;;26.12;29.41;95455.47;10509810;28;2257;-77
2022/06/01 12:04:17;;;;;;;;;;;;;;;26.28;29.03;95450.50;10504738;28;2303;-77
2022/06/01 12:09:23;;;;;;;;;;;;;;;26.11;28.03;95445.63;10514722;28;2137;-77
2022/06/01 12:14:27;;;;;;;;;;;;;;;26.04;29.08;95451.88;10513766;28;2258;-75
2022/06/01 12:19:31;;;;;;;;;;;;;;;25.94;29.69;95440.75;10483762;28;2187;-76
2022/06/01 12:29:59;;;;;;;;;;;;;;;25.53;29.63;95433.28;10488110;28;2251;-77
2022/06/01 12:35:03;;;;;;;;;;;;;;;25.29;29.97;95429.09;10510113;28;2265;-75
2022/06/01 12:40:07;;;;;;;;;;;;;;;24.73;31.41;95424.47;10495168;28;2223;-76
2022/06/01 12:45:10;;;;;;;;;;;;;;;24.98;31.21;95429.50;10504277;28;2289;-77
2022/06/01 12:50:14;;;;;;;;;;;;;;;25.20;31.85;95425.06;10484686;28;2251;-76
2022/06/01 12:55:18;;;;;;;;;;;;;;;25.11;31.39;95428.09;10507594;28;2247;-76
2022/06/01 13:00:22;;;;;;;;;;;;;;;25.18;30.79;95417.19;10499731;28;2168;-75
2022/06/01 13:05:26;;;;;;;;;;;;;;;24.87;31.09;95423.06;10484328;28;2255;-78
2022/06/01 13:10:30;;;;;;;;;;;;;;;24.06;31.99;95424.28;10504346;28;2261;-76
2022/06/01 13:15:35;;;;;;;;;;;;;;;24.43;32.25;95420.91;10484923;28;2375;-77
2022/06/01 13:20:39;;;;;;;;;;;;;;;24.86;32.37;95422.28;10487146;28;2125;-75
2022/06/01 13:25:42;;;;;;;;;;;;;;;24.76;31.55;95428.44;10506602;28;2304;-76
2022/06/01 13:30:46;;;;;;;;;;;;;;;24.89;31.69;95427.03;10486341;28;2180;-77
2022/06/01 13:35:50;;;;;;;;;;;;;;;24.64;31.56;95414.94;10507545;28;2159;-76
2022/06/01 13:40:53;;;;;;;;;;;;;;;24.49;31.77;95428.50;10506760;28;2299;-76
2022/06/01 13:45:57;;;;;;;;;;;25.60;96.30;;;24.65;32.19;95419.25;10490951;28;2240;-76
2022/06/01 13:51:00;;;;;;;;;;;25.20;89.40;;;24.77;32.07;95427.28;10482489;28;2378;-76
2022/06/01 13:56:03;;;;;;;;;;;;;;;24.62;32.35;95431.81;10507515;28;2247;-75
2022/06/01 14:01:07;;;;;;;;;;;;;;;23.99;33.51;95429.66;10488855;28;2314;-76
2022/06/01 14:06:11;;;;;;;;;;;;;;;23.40;34.60;95433.69;10504557;28;2278;-78
2022/06/01 14:11:14;;;;;;;;;;;;;;;22.62;35.76;95422.75;10479864;28;2358;-76
2022/06/01 14:16:18;;;;;;;;;;;;;;;22.61;35.86;95429.38;10487634;28;2211;-75
2022/06/01 14:21:22;;;;;;;;;;;;;;;22.64;36.34;95420.44;10502269;28;2196;-74
2022/06/01 14:31:46;;;;;;;;;;;;;;;23.95;34.37;95423.31;10485464;28;2200;-74
2022/06/01 14:36:50;;;;;;;;;;;;;;;24.91;32.50;95429.41;10492905;28;2049;-74
2022/06/01 14:41:53;;;;;;;;;;;;;;;24.50;32.88;95429.28;10501106;28;2249;-74
2022/06/01 14:46:56;;;;;;;;;;;;;;;23.04;34.47;95452.22;10502337;28;2331;-75
2022/06/01 14:52:05;;;;;;;;;;;;;;;22.77;34.71;95453.97;10502926;28;2286;-74
2022/06/01 14:57:09;;;;;;;;;;;;;;;22.36;35.09;95458.16;10514993;28;2294;-75
2022/06/01 15:02:13;;;;;;;;;;;23.20;90.10;;;22.28;36.29;95481.06;10523295;28;2433;-74
2022/06/01 15:07:16;;;;;;;;;;;;;;;22.27;36.69;95476.75;10487546;28;2262;-74
2022/06/01 15:12:19;;;;;;;;;;;22.80;94.40;;;22.10;37.34;95486.13;10505652;28;2314;-75
2022/06/01 15:17:23;;;;;;;;;;;;;;;21.79;38.50;95492.34;10496935;28;2325;-75
2022/06/01 15:22:26;;;;;;;;;;;;;;;21.39;39.67;95504.19;10501536;28;2183;-75
2022/06/01 15:27:30;;;;;;;;;;;;;;;20.89;41.84;95499.22;10507308;28;2373;-75
2022/06/01 15:43:16;;;;;;;;;;;;;;;19.50;48.35;95538.38;10485780;28;2123;-73
2022/06/01 15:48:20;;;;;;;;;;;;;;;18.78;46.42;95530.34;10503759;28;2215;-74
2022/06/01 15:53:24;;;;;;;;;;;;;;;18.79;47.68;95539.31;10494762;28;2183;-74
2022/06/01 15:58:33;;;;;;;;;;;;;;;18.30;50.25;95539.72;10505437;28;2168;-73
2022/06/01 16:03:41;;;;;;;;;;;;;;;17.77;61.12;95553.88;10501575;28;2303;-72
2022/06/01 16:08:45;;;;;;;;;;;;;;;17.53;61.05;95562.53;10502855;28;2115;-74
2022/06/01 16:13:50;;;;;;;;;;;;;;;17.27;66.43;95574.22;10485632;28;2302;-75
2022/06/01 16:18:54;;;;;;;;;;;;;;;17.02;68.61;95564.16;10516989;28;2383;-74
2022/06/01 16:23:58;;;;;;;;;;;;;;;16.89;77.20;95565.13;10489151;28;2306;-76
2022/06/01 16:29:02;;;;;;;;;;;;;;;16.65;76.47;95579.13;10485684;28;2136;-76
2022/06/01 16:34:05;;;;;;;;;;;17.40;99.90;;;16.50;84.23;95574.94;10487271;28;2467;-74
2022/06/01 16:39:08;;;;;;;;;;;17.60;99.90;;;16.42;86.63;95578.44;10504494;28;2038;-75
2022/06/01 16:44:31;;;;;;;;;;;17.40;99.90;;;16.49;87.70;95592.34;10488475;28;2223;-74
2022/06/01 16:49:34;;;;;;;;;;;17.50;99.90;;;16.53;90.93;95590.56;10507865;28;2314;-74
2022/06/01 16:54:38;;;;;;;;;;;17.30;99.90;;;16.34;90.46;95598.19;10481341;28;2219;-73
2022/06/01 16:59:41;;;;;;;;;;;;;;;15.77;93.63;95598.88;10505909;28;2145;-72
2022/06/01 17:04:45;;;;;;;;;;;;;;;15.51;99.91;95612.25;10486951;28;2160;-74
2022/06/01 17:09:49;;;;;;;;;;;;;;;15.21;100.00;95621.13;10502495;28;2144;-73
2022/06/01 17:14:53;;;;;;;;;;;;;;;15.04;100.00;95625.28;10508117;28;2151;-74
2022/06/01 17:19:57;;;;;;;;;;;;;;;14.88;100.00;95619.38;10481701;28;2215;-73
2022/06/01 17:25:00;;;;;;;;;;;;;;;14.82;100.00;95620.63;10499177;28;2251;-73
2022/06/01 17:30:05;;;;;;;;;;;;;;;14.71;100.00;95626.56;10502368;28;2121;-74
2022/06/01 17:35:09;;;;;;;;;;;;;;;14.65;100.00;95635.88;10502671;28;2313;-75
2022/06/01 17:40:13;;;;;;;;;;;;;;;14.56;100.00;95622.25;10503159;28;2230;-72
2022/06/01 17:45:20;;;;;;;;;;;;;;;14.54;100.00;95629.88;10486633;28;2310;-73
2022/06/01 17:50:23;;;;;;;;;;;;;;;14.50;100.00;95626.97;10482903;28;2337;-73
2022/06/01 17:55:27;;;;;;;;;;;;;;;14.37;100.00;95627.75;10488373;28;2128;-74
2022/06/01 18:00:31;;;;;;;;;;;;;;;14.26;100.00;95626.34;10486786;28;2301;-74
2022/06/01 18:05:35;;;;;;;;;;;;;;;14.18;100.00;95614.31;10501408;28;2330;-74
2022/06/01 18:10:38;;;;;;;;;;;;;;;14.19;100.00;95612.44;10487288;28;2159;-74
2022/06/01 18:15:42;;;;;;;;;;;;;;;14.17;100.00;95603.81;10499454;28;2163;-74
2022/06/01 18:20:46;;;;;;;;;;;;;;;14.24;100.00;95579.88;10501630;28;2200;-74
2022/06/01 18:25:49;;;;;;;;;;;;;;;14.35;100.00;95589.38;10511045;28;2298;-74
2022/06/01 18:30:53;;;;;;;;;;;;;;;14.40;100.00;95585.78;10503111;28;2291;-73
2022/06/01 18:35:58;;;;;;;;;;;;;;;14.49;100.00;95584.00;10503071;28;2231;-75
2022/06/01 18:41:04;;;;;;;;;;;;;;;14.51;100.00;95577.19;10477254;28;2382;-74
2022/06/01 18:46:08;;;;;;;;;;;;;;;14.51;100.00;95585.31;10503830;28;2242;-73
2022/06/01 18:51:12;;;;;;;;;;;;;;;14.54;100.00;95578.47;10505667;28;2246;-73
2022/06/01 18:56:15;;;;;;;;;;;;;;;14.56;100.00;95589.78;10507258;28;2219;-74
2022/06/01 19:01:36;;;;;;;;;;;;;;;14.58;100.00;95596.50;10524191;28;2208;-72
2022/06/01 19:06:40;;;;;;;;;;;;;;;14.55;100.00;95599.00;10508862;28;2258;-74
2022/06/01 19:11:44;;;;;;;;;;;;;;;14.50;100.00;95599.91;10501415;28;2267;-74
2022/06/01 19:16:48;;;;;;;;;;;;;;;14.48;100.00;95602.13;10489065;28;2200;-73
2022/06/01 19:21:57;;;;;;;;;;;;;;;14.47;100.00;95608.66;10500956;28;2239;-74
2022/06/01 19:27:01;;;;;;;;;;;;;;;14.43;100.00;95607.59;10503915;28;2381;-75
2022/06/01 19:32:25;;;;;;;;;;;;;;;14.39;100.00;95606.63;10505064;28;2153;-72
2022/06/01 19:48:13;;;;;;;;;;;;;;;14.47;100.00;95641.09;10503975;28;2278;-74
2022/06/01 19:53:17;;;;;;;;;;;;;;;14.53;100.00;95644.50;10516834;28;2254;-74
2022/06/01 19:58:20;;;;;;;;;;;;;;;14.58;100.00;95652.53;10509758;28;2136;-74
2022/06/01 20:03:24;;;;;;;;;;;;;;;14.61;100.00;95654.63;10503340;28;2223;-74
2022/06/01 20:08:27;;;;;;;;;;;;;;;14.65;100.00;95657.53;10506386;28;2298;-74
2022/06/01 20:13:31;;;;;;;;;;;;;;;14.57;100.00;95649.03;10516443;28;2167;-75
2022/06/01 20:18:35;;;;;;;;;;;;;;;14.53;100.00;95649.91;10505700;28;2207;-74
2022/06/01 20:23:38;;;;;;;;;;;;;;;14.51;100.00;95650.22;10507864;28;2593;-75
2022/06/01 20:28:49;;;;;;;;;;;;;;;14.40;100.00;95656.09;10508637;28;2360;-75
2022/06/01 20:33:52;;;;;;;;;;;;;;;14.37;100.00;95659.38;10487494;28;2311;-75
2022/06/01 20:38:56;;;;;;;;;;;;;;;14.41;100.00;95665.81;10512205;28;2305;-74
2022/06/01 20:44:01;;;;;;;;;;;;;;;14.33;100.00;95661.91;10487150;28;2168;-74
2022/06/01 20:49:07;;;;;;;;;;;;;;;14.32;100.00;95657.59;10490086;28;2295;-75
2022/06/01 20:54:11;;;;;;;;;;;;;;;14.23;100.00;95656.69;10483241;28;2171;-74
2022/06/01 20:59:14;;;;;;;;;;;;;;;14.02;100.00;95662.47;10514187;28;2199;-74
2022/06/01 21:04:17;;;;;;;;;;;;;;;13.79;100.00;95668.81;10506386;28;2258;-73
2022/06/01 21:09:21;;;;;;;;;;;;;;;13.71;100.00;95683.00;10487386;28;2195;-74
2022/06/01 21:14:26;;;;;;;;;;;;;;;13.72;100.00;95671.91;10503799;28;2381;-73
2022/06/01 21:19:30;;;;;;;;;;;;;;;13.74;100.00;95675.13;10513441;28;2101;-75
2022/06/01 21:24:34;;;;;;;;;;;;;;;13.70;100.00;95674.09;10501313;28;2235;-73
2022/06/01 21:29:39;;;;;;;;;;;;;;;13.72;100.00;95669.19;10481385;28;2100;-74
2022/06/01 21:34:43;;;;;;;;;;;;;;;13.75;100.00;95662.41;10483970;28;2175;-73
2022/06/01 21:39:46;;;;;;;;;;;;;;;13.73;100.00;95667.28;10489085;28;2155;-74
2022/06/01 21:44:50;;;;;;;;;;;;;;;13.75;100.00;95675.91;10495444;28;2258;-74
2022/06/01 21:49:54;;;;;;;;;;;;;;;13.85;100.00;95675.72;10511939;28;2156;-74
2022/06/01 21:54:59;;;;;;;;;;;;;;;13.86;100.00;95679.22;10509067;28;2195;-74
2022/06/01 22:00:02;;;;;;;;;;;;;;;13.88;100.00;95677.06;10501308;28;2187;-73
2022/06/01 22:05:06;;;;;;;;;;;;;;;13.93;100.00;95683.19;10491598;28;2145;-72
2022/06/01 22:10:10;;;;;;;;;;;;;;;13.91;100.00;95671.03;10504951;28;2208;-75
2022/06/01 22:15:15;;;;;;;;;;;;;;;13.80;100.00;95675.81;10504089;28;2184;-73
2022/06/01 22:20:19;;;;;;;;;;;;;;;13.78;100.00;95688.81;10491207;28;2282;-73
2022/06/01 22:25:24;;;;;;;;;;;;;;;13.64;100.00;95679.88;10506701;28;2259;-73
2022/06/01 22:30:28;;;;;;;;;;;;;;;13.56;100.00;95675.16;10511137;28;2329;-73
2022/06/01 22:40:59;;;;;;;;;;;;;;;13.30;100.00;95672.84;10424906;28;2168;-73
2022/06/01 22:46:02;;;;;;;;;;;14.20;99.90;;;13.25;100.00;95681.03;10509902;28;2055;-74
2022/06/01 22:51:05;;;;;;;;;;;;;;;13.27;100.00;95676.13;10503666;28;2255;-72
2022/06/01 22:56:10;;;;;;;;;;;;;;;13.41;100.00;95673.47;10504386;28;2310;-72
2022/06/01 23:01:14;;;;;;;;;;;;;;;13.51;100.00;95674.13;10535090;28;2180;-75
2022/06/01 23:06:19;;;;;;;;;;;;;;;13.61;100.00;95678.56;10480129;28;2247;-74
2022/06/01 23:11:23;;;;;;;;;;;;;;;13.70;100.00;95684.09;10499850;28;2364;-74
2022/06/01 23:16:30;;;;;;;;;;;;;;;13.75;100.00;95682.13;10503323;28;2273;-74
2022/06/01 23:21:33;;;;;;;;;;;;;;;13.70;100.00;95687.59;10501516;28;2310;-73
2022/06/01 23:26:37;;;;;;;;;;;;;;;13.58;100.00;95687.25;10491328;28;2299;-74
2022/06/01 23:31:40;;;;;;;;;;;14.60;99.90;;;13.43;100.00;95682.91;10484026;28;2410;-73
2022/06/01 23:36:43;;;;;;;;;;;14.40;99.90;;;13.33;100.00;95683.06;10507301;28;2278;-73
2022/06/01 23:41:46;;;;;;;;;;;14.30;99.90;;;13.20;100.00;95670.25;10499358;28;2123;-73
2022/06/01 23:46:49;;;;;;;;;;;14.20;99.90;;;13.16;100.00;95675.44;10484247;28;2275;-74
2022/06/01 23:51:52;;;;;;;;;;;14.10;99.90;;;13.24;100.00;95685.63;10504842;28;2297;-72
2022/06/01 23:56:56;;;;;;;;;;;14.10;99.90;;;13.16;100.00;95683.53;10507066;28;2207;-73
